createdAt,value
2022-08-06T00:00:07.791Z,58.67
2022-08-06T00:03:01.052Z,57.82
2022-08-06T00:06:03.433Z,58.15
2022-08-06T00:09:05.582Z,58.21
2022-08-06T00:12:10.749Z,58.33
2022-08-06T00:15:14.394Z,58.34
2022-08-06T00:18:18.132Z,58.62
2022-08-06T00:21:42.156Z,57.98
2022-08-06T00:24:42.714Z,57.36
2022-08-06T00:27:51.250Z,57.23
2022-08-06T00:30:54.434Z,57.95
2022-08-06T00:34:05.343Z,57.57
2022-08-06T00:37:18.383Z,56.98
2022-08-06T00:40:24.252Z,56.87
2022-08-06T00:43:39.608Z,57.11
2022-08-06T00:46:44.903Z,57.44
2022-08-06T00:49:49.953Z,57.44
2022-08-06T00:52:52.807Z,57.53
2022-08-06T00:56:01.193Z,58.67
2022-08-06T00:59:05.164Z,59.27
2022-08-06T01:02:14.722Z,59.11
2022-08-06T01:06:04.096Z,59.65
2022-08-06T01:08:41.569Z,60.00
2022-08-06T01:11:43.784Z,60.92
2022-08-06T01:15:02.510Z,61.67
2022-08-06T01:18:14.049Z,65.81
2022-08-06T01:22:29.702Z,68.12
2022-08-06T01:25:18.485Z,69.20
2022-08-06T01:28:28.621Z,70.31
2022-08-06T01:31:44.853Z,71.92
2022-08-06T01:34:53.347Z,73.40
2022-08-06T01:38:13.758Z,73.47
2022-08-06T01:41:54.949Z,72.85
2022-08-06T01:45:02.419Z,68.31
2022-08-06T01:48:08.103Z,65.96
2022-08-06T01:51:17.060Z,63.75
2022-08-06T01:54:20.968Z,62.28
2022-08-06T01:57:32.808Z,60.44
2022-08-06T02:00:49.691Z,60.12
2022-08-06T02:03:59.441Z,57.59
2022-08-06T02:07:04.835Z,57.75
2022-08-06T02:10:18.719Z,56.37
2022-08-06T02:13:23.599Z,56.73
2022-08-06T02:16:26.504Z,55.76
2022-08-06T02:19:47.903Z,55.73
2022-08-06T02:22:53.215Z,54.79
2022-08-06T02:25:56.797Z,55.38
2022-08-06T02:29:00.608Z,54.84
2022-08-06T02:32:02.779Z,54.82
2022-08-06T02:35:05.359Z,55.29
2022-08-06T02:38:29.392Z,55.50
2022-08-06T02:41:55.624Z,55.55
2022-08-06T02:45:04.685Z,54.68
2022-08-06T02:48:22.189Z,54.93
2022-08-06T02:52:10.545Z,55.03
2022-08-06T02:55:16.137Z,55.29
2022-08-06T02:58:36.588Z,56.92
2022-08-06T03:01:53.165Z,57.19
2022-08-06T03:04:58.678Z,56.69
2022-08-06T03:08:08.217Z,57.66
2022-08-06T03:11:13.494Z,57.66
2022-08-06T03:15:04.355Z,59.45
2022-08-06T03:17:42.941Z,60.08
2022-08-06T03:20:49.581Z,59.53
2022-08-06T03:23:53.247Z,59.71
2022-08-06T03:27:01.167Z,59.16
2022-08-06T03:30:05.557Z,59.34
2022-08-06T03:33:29.180Z,60.23
2022-08-06T03:36:38.160Z,61.57
2022-08-06T03:39:47.172Z,61.36
2022-08-06T03:42:55.465Z,62.37
2022-08-06T03:46:08.153Z,62.82
2022-08-06T03:49:15.403Z,61.44
2022-08-06T03:52:31.985Z,62.02
2022-08-06T03:55:36.880Z,63.78
2022-08-06T03:58:41.246Z,64.13
2022-08-06T04:01:50.530Z,64.96
2022-08-06T04:04:53.889Z,65.67
2022-08-06T04:07:59.133Z,66.03
2022-08-06T04:11:07.870Z,65.76
2022-08-06T04:14:32.045Z,64.75
2022-08-06T04:17:37.115Z,64.80
2022-08-06T04:20:48.235Z,65.82
2022-08-06T04:23:56.283Z,65.63
2022-08-06T04:27:00.730Z,65.01
2022-08-06T04:30:09.367Z,66.13
2022-08-06T04:33:17.559Z,66.21
2022-08-06T04:36:25.435Z,62.38
2022-08-06T04:39:38.014Z,61.23
2022-08-06T04:42:53.214Z,59.90
2022-08-06T04:46:14.190Z,62.07
2022-08-06T04:49:20.163Z,66.77
2022-08-06T04:52:36.392Z,66.41
2022-08-06T04:55:52.219Z,65.42
2022-08-06T04:59:09.074Z,64.41
2022-08-06T05:02:13.061Z,64.10
2022-08-06T05:05:16.973Z,64.38
2022-08-06T05:08:27.388Z,63.93
2022-08-06T05:11:35.527Z,63.98
2022-08-06T05:14:55.815Z,64.54
2022-08-06T05:19:16.729Z,64.57
2022-08-06T05:22:05.277Z,64.84
2022-08-06T05:25:09.909Z,64.11
2022-08-06T05:28:19.537Z,63.36
2022-08-06T05:31:38.673Z,62.69
2022-08-06T05:34:41.950Z,61.50
2022-08-06T05:38:01.543Z,60.50
2022-08-06T05:41:12.469Z,59.48
2022-08-06T05:44:16.018Z,59.54
2022-08-06T05:47:22.912Z,59.94
2022-08-06T05:50:29.343Z,60.70
2022-08-06T05:54:03.372Z,60.59
2022-08-06T05:57:20.056Z,61.44
2022-08-06T06:00:44.705Z,60.37
2022-08-06T06:03:48.915Z,60.49
2022-08-06T06:06:54.637Z,60.68
2022-08-06T06:10:03.555Z,61.04
2022-08-06T06:13:24.278Z,61.44
2022-08-06T06:16:31.681Z,62.49
2022-08-06T06:19:39.045Z,63.19
2022-08-06T06:23:07.876Z,63.42
2022-08-06T06:26:32.875Z,62.93
2022-08-06T06:30:05.821Z,62.92
2022-08-06T06:33:51.476Z,62.76
2022-08-06T06:37:41.159Z,61.89
2022-08-06T06:41:32.186Z,60.85
2022-08-06T06:45:04.095Z,60.51
2022-08-06T06:48:23.620Z,62.55
2022-08-06T06:51:56.465Z,62.20
2022-08-06T06:55:00.016Z,62.48
2022-08-06T06:58:12.528Z,62.80
2022-08-06T07:01:29.998Z,62.47
2022-08-06T07:04:38.965Z,62.00
2022-08-06T07:07:49.728Z,62.62
2022-08-06T07:10:56.326Z,62.36
2022-08-06T07:14:03.849Z,62.48
2022-08-06T07:17:46.162Z,62.64
2022-08-06T07:20:36.318Z,62.26
2022-08-06T07:24:06.544Z,60.81
2022-08-06T07:27:15.165Z,62.09
2022-08-06T07:30:21.332Z,63.32
2022-08-06T07:33:29.432Z,61.59
2022-08-06T07:36:57.197Z,62.37
2022-08-06T07:40:02.701Z,62.74
2022-08-06T07:43:25.196Z,62.78
2022-08-06T07:46:33.533Z,61.76
2022-08-06T07:50:00.224Z,59.97
2022-08-06T07:53:04.021Z,58.82
2022-08-06T07:56:07.304Z,58.13
2022-08-06T07:59:11.880Z,57.44
2022-08-06T08:02:17.473Z,59.64
2022-08-06T08:06:01.067Z,60.52
2022-08-06T08:09:08.299Z,60.78
2022-08-06T08:12:26.412Z,60.58
2022-08-06T08:15:43.200Z,61.56
2022-08-06T08:18:46.184Z,59.90
2022-08-06T08:21:49.744Z,59.55
2022-08-06T08:24:53.869Z,59.39
2022-08-06T08:27:57.506Z,60.14
2022-08-06T08:31:15.551Z,59.70
2022-08-06T08:34:27.212Z,58.66
2022-08-06T08:37:32.230Z,59.75
2022-08-06T08:40:35.885Z,61.35
2022-08-06T08:44:00.674Z,60.56
2022-08-06T08:47:12.424Z,61.73
2022-08-06T08:50:18.440Z,61.87
2022-08-06T08:53:45.516Z,62.01
2022-08-06T08:57:08.282Z,62.11
2022-08-06T09:00:12.612Z,61.78
2022-08-06T09:03:24.898Z,60.53
2022-08-06T09:06:30.568Z,62.23
2022-08-06T09:09:36.176Z,62.57
2022-08-06T09:12:44.891Z,63.90
2022-08-06T09:15:55.308Z,64.73
2022-08-06T09:18:57.499Z,65.13
2022-08-06T09:22:02.248Z,64.98
2022-08-06T09:25:07.942Z,65.12
2022-08-06T09:28:29.255Z,65.88
2022-08-06T09:31:44.811Z,65.96
2022-08-06T09:34:50.676Z,64.72
2022-08-06T09:38:06.286Z,65.75
2022-08-06T09:41:15.652Z,66.00
2022-08-06T09:44:35.454Z,65.91
2022-08-06T09:47:39.473Z,66.05
2022-08-06T09:50:44.339Z,66.09
2022-08-06T09:54:05.586Z,66.34
2022-08-06T09:57:34.704Z,65.80
2022-08-06T10:00:39.794Z,65.03
2022-08-06T10:04:03.698Z,65.35
2022-08-06T10:07:06.354Z,65.90
2022-08-06T10:10:10.592Z,68.25
2022-08-06T10:13:20.190Z,70.46
2022-08-06T10:16:29.153Z,71.31
2022-08-06T10:19:35.990Z,72.11
2022-08-06T10:22:57.635Z,74.78
2022-08-06T10:26:05.574Z,72.49
2022-08-06T10:29:08.579Z,71.85
2022-08-06T10:32:16.287Z,74.59
2022-08-06T10:35:22.232Z,76.17
2022-08-06T10:38:35.117Z,75.33
2022-08-06T10:42:00.471Z,74.37
2022-08-06T10:45:08.092Z,76.96
2022-08-06T10:48:58.841Z,78.23
2022-08-06T10:51:56.122Z,79.53
2022-08-06T10:55:03.525Z,80.49
2022-08-06T10:58:06.007Z,80.74
2022-08-06T11:01:23.120Z,81.20
2022-08-06T11:04:32.598Z,80.47
2022-08-06T11:08:09.537Z,80.86
2022-08-06T11:12:20.779Z,78.77
2022-08-06T11:15:25.625Z,79.99
2022-08-06T11:18:31.531Z,78.21
2022-08-06T11:21:59.218Z,73.55
2022-08-06T11:25:25.252Z,76.39
2022-08-06T11:28:34.400Z,74.37
2022-08-06T11:31:56.512Z,75.45
2022-08-06T11:34:59.119Z,72.88
2022-08-06T11:38:25.028Z,74.48
2022-08-06T11:41:55.316Z,73.40
2022-08-06T11:45:06.265Z,73.29
2022-08-06T11:48:12.984Z,71.64
2022-08-06T11:51:42.463Z,69.23
2022-08-06T11:54:46.729Z,67.48
2022-08-06T11:57:51.658Z,66.56
2022-08-06T12:01:03.019Z,67.77
2022-08-06T12:04:33.737Z,62.54
2022-08-06T12:07:38.205Z,66.11
2022-08-06T12:11:36.260Z,65.02
2022-08-06T12:14:49.195Z,63.50
2022-08-06T12:18:18.737Z,63.80
2022-08-06T12:21:20.754Z,64.21
2022-08-06T12:24:45.528Z,62.63
2022-08-06T12:27:55.089Z,63.36
2022-08-06T12:30:57.241Z,62.91
2022-08-06T12:33:59.787Z,62.83
2022-08-06T12:37:02.136Z,60.06
2022-08-06T12:40:25.024Z,60.70
2022-08-06T12:43:46.392Z,59.26
2022-08-06T12:46:54.182Z,59.20
2022-08-06T12:49:56.436Z,59.38
2022-08-06T12:53:06.004Z,58.37
2022-08-06T12:56:29.158Z,57.03
2022-08-06T12:59:42.905Z,58.92
2022-08-06T13:02:48.701Z,59.80
2022-08-06T13:05:52.094Z,59.74
2022-08-06T13:08:55.390Z,62.15
2022-08-06T13:11:57.246Z,59.22
2022-08-06T13:15:09.986Z,59.34
2022-08-06T13:18:41.752Z,60.63
2022-08-06T13:21:56.856Z,59.65
2022-08-06T13:25:31.059Z,59.49
2022-08-06T13:28:38.373Z,60.14
2022-08-06T13:31:58.679Z,60.33
2022-08-06T13:35:08.065Z,60.12
2022-08-06T13:38:17.268Z,60.10
2022-08-06T13:41:29.663Z,59.35
2022-08-06T13:44:44.137Z,59.11
2022-08-06T13:47:58.529Z,58.87
2022-08-06T13:51:04.830Z,57.67
2022-08-06T13:54:18.825Z,58.11
2022-08-06T13:57:22.107Z,57.74
2022-08-06T14:00:25.557Z,57.46
2022-08-06T14:03:38.238Z,57.88
2022-08-06T14:06:44.802Z,58.82
2022-08-06T14:10:08.660Z,57.08
2022-08-06T14:13:18.266Z,57.00
2022-08-06T14:16:24.299Z,57.34
2022-08-06T14:20:08.904Z,56.87
2022-08-06T14:22:50.825Z,58.09
2022-08-06T14:26:03.262Z,57.19
2022-08-06T14:30:26.106Z,57.12
2022-08-06T14:32:31.353Z,58.03
2022-08-06T14:35:39.925Z,57.33
2022-08-06T14:38:49.484Z,56.83
2022-08-06T14:42:10.813Z,57.58
2022-08-06T14:45:14.917Z,57.18
2022-08-06T14:48:31.112Z,57.55
2022-08-06T14:52:18.041Z,56.90
2022-08-06T14:55:06.802Z,56.77
2022-08-06T14:58:10.963Z,56.15
2022-08-06T15:01:17.118Z,57.13
2022-08-06T15:04:24.743Z,58.76
2022-08-06T15:07:41.439Z,58.41
2022-08-06T15:10:44.498Z,57.16
2022-08-06T15:13:51.925Z,55.39
2022-08-06T15:17:29.958Z,57.34
2022-08-06T15:20:25.235Z,56.42
2022-08-06T15:23:44.862Z,57.67
2022-08-06T15:26:51.014Z,58.95
2022-08-06T15:29:52.991Z,59.10
2022-08-06T15:32:56.780Z,58.92
2022-08-06T15:35:59.898Z,59.98
2022-08-06T15:39:09.204Z,60.39
2022-08-06T15:42:12.468Z,60.97
2022-08-06T15:45:49.906Z,61.26
2022-08-06T15:48:46.866Z,62.04
2022-08-06T15:52:01.133Z,61.03
2022-08-06T15:55:16.466Z,61.63
2022-08-06T15:58:28.933Z,63.25
2022-08-06T16:01:52.187Z,63.40
2022-08-06T16:04:56.175Z,63.96
2022-08-06T16:07:58.546Z,63.63
2022-08-06T16:11:01.138Z,63.44
2022-08-06T16:14:11.896Z,63.76
2022-08-06T16:17:14.530Z,63.07
2022-08-06T16:20:36.466Z,63.97
2022-08-06T16:23:57.276Z,64.00
2022-08-06T16:27:04.648Z,63.50
2022-08-06T16:30:07.458Z,64.94
2022-08-06T16:33:11.774Z,64.30
2022-08-06T16:36:16.893Z,64.22
2022-08-06T16:39:35.044Z,64.45
2022-08-06T16:42:38.068Z,65.12
2022-08-06T16:45:40.427Z,65.52
2022-08-06T16:48:42.508Z,65.34
2022-08-06T16:52:41.919Z,65.85
2022-08-06T16:55:13.630Z,66.25
2022-08-06T16:58:34.971Z,65.72
2022-08-06T17:02:14.120Z,65.75
2022-08-06T17:05:03.672Z,66.03
2022-08-06T17:08:06.937Z,66.77
2022-08-06T17:11:45.283Z,66.49
2022-08-06T17:14:33.058Z,67.25
2022-08-06T17:17:37.478Z,65.98
2022-08-06T17:20:43.169Z,66.24
2022-08-06T17:23:53.420Z,66.84
2022-08-06T17:26:56.326Z,67.67
2022-08-06T17:29:58.535Z,67.76
2022-08-06T17:33:10.412Z,66.96
2022-08-06T17:39:39.590Z,67.37
2022-08-06T17:42:41.995Z,67.45
2022-08-06T17:45:52.440Z,68.03
2022-08-06T17:49:06.620Z,68.35
2022-08-06T17:52:10.314Z,68.60
2022-08-06T17:55:13.147Z,68.72
2022-08-06T17:58:38.281Z,69.41
2022-08-06T18:01:44.678Z,69.63
2022-08-06T18:04:48.706Z,68.72
2022-08-06T18:08:06.892Z,69.80
2022-08-06T18:11:14.205Z,69.83
2022-08-06T18:14:32.731Z,70.29
2022-08-06T18:17:47.538Z,71.34
2022-08-06T18:20:57.629Z,71.23
2022-08-06T18:24:25.469Z,70.63
2022-08-06T18:28:03.857Z,70.69
2022-08-06T18:30:50.249Z,70.89
2022-08-06T18:33:53.829Z,71.29
2022-08-06T18:36:56.431Z,71.46
2022-08-06T18:40:18.777Z,71.48
2022-08-06T18:43:22.560Z,71.36
2022-08-06T18:46:57.017Z,70.59
2022-08-06T18:49:51.632Z,71.81
2022-08-06T18:52:55.790Z,71.64
2022-08-06T18:56:04.417Z,71.76
2022-08-06T18:59:23.794Z,70.60
2022-08-06T19:02:32.434Z,71.54
2022-08-06T19:05:40.558Z,70.88
2022-08-06T19:08:52.272Z,71.46
2022-08-06T19:11:54.267Z,71.61
2022-08-06T19:14:56.896Z,71.45
2022-08-06T19:18:14.232Z,71.30
2022-08-06T19:21:19.891Z,71.96
2022-08-06T19:24:35.735Z,71.83
2022-08-06T19:28:30.856Z,71.78
2022-08-06T19:31:04.184Z,72.20
2022-08-06T19:34:09.192Z,72.59
2022-08-06T19:37:27.118Z,72.00
2022-08-06T19:40:53.052Z,72.02
2022-08-06T19:44:26.388Z,72.14
2022-08-06T19:47:32.944Z,73.41
2022-08-06T19:50:37.261Z,73.24
2022-08-06T19:53:40.364Z,72.60
2022-08-06T19:56:44.220Z,73.66
2022-08-06T20:00:52.183Z,74.06
2022-08-06T20:03:18.205Z,73.60
2022-08-06T20:06:40.150Z,73.49
2022-08-06T20:10:00.005Z,73.87
2022-08-06T20:13:06.506Z,74.37
2022-08-06T20:16:11.666Z,74.60
2022-08-06T20:19:14.310Z,74.66
2022-08-06T20:22:16.989Z,74.95
2022-08-06T20:25:23.800Z,74.64
2022-08-06T20:29:10.302Z,75.63
2022-08-06T20:31:55.350Z,75.78
2022-08-06T20:34:58.125Z,75.69
2022-08-06T20:38:03.349Z,74.75
2022-08-06T20:41:59.234Z,74.74
2022-08-06T20:44:31.681Z,74.50
2022-08-06T20:47:44.841Z,75.00
2022-08-06T20:50:50.515Z,74.48
2022-08-06T20:53:56.228Z,74.22
2022-08-06T20:57:04.291Z,74.10
2022-08-06T21:00:15.167Z,73.31
2022-08-06T21:05:10.340Z,72.71
2022-08-06T21:06:42.522Z,72.96
2022-08-06T21:09:48.333Z,71.72
2022-08-06T21:13:01.172Z,71.46
2022-08-06T21:16:05.584Z,70.86
2022-08-06T21:19:18.628Z,70.76
2022-08-06T21:22:20.790Z,70.71
2022-08-06T21:25:42.665Z,70.76
2022-08-06T21:28:54.069Z,70.08
2022-08-06T21:31:58.583Z,69.93
2022-08-06T21:35:00.760Z,69.62
2022-08-06T21:38:03.470Z,69.89
2022-08-06T21:41:50.058Z,69.78
2022-08-06T21:44:50.394Z,70.00
2022-08-06T21:47:53.314Z,69.36
2022-08-06T21:50:59.749Z,69.64
2022-08-06T21:54:04.118Z,68.94
2022-08-06T21:57:11.738Z,69.54
2022-08-06T22:00:35.063Z,70.04
2022-08-06T22:04:37.109Z,69.80
2022-08-06T22:06:59.746Z,69.98
2022-08-06T22:10:02.873Z,70.77
2022-08-06T22:13:15.841Z,69.96
2022-08-06T22:16:18.762Z,70.09
2022-08-06T22:19:39.191Z,69.49
2022-08-06T22:22:44.091Z,70.14
2022-08-06T22:25:54.664Z,70.58
2022-08-06T22:28:58.235Z,69.33
2022-08-06T22:32:04.780Z,69.36
2022-08-06T22:35:09.725Z,69.38
2022-08-06T22:38:20.453Z,69.32
2022-08-06T22:41:42.623Z,70.49
2022-08-06T22:45:48.281Z,70.17
2022-08-06T22:48:10.395Z,70.93
2022-08-06T22:51:18.873Z,71.45
2022-08-06T22:54:58.063Z,72.34
2022-08-06T22:59:01.817Z,72.06
2022-08-06T23:02:02.771Z,72.78
2022-08-06T23:04:41.142Z,71.42
2022-08-06T23:07:54.142Z,70.95
2022-08-06T23:10:56.567Z,71.38
2022-08-06T23:14:00.400Z,72.37
2022-08-06T23:17:09.402Z,71.59
2022-08-06T23:20:12.609Z,71.72
2022-08-06T23:23:29.157Z,72.58
2022-08-06T23:26:33.099Z,72.32
2022-08-06T23:29:57.620Z,72.64
2022-08-06T23:33:01.177Z,73.25
2022-08-06T23:36:07.938Z,74.08
2022-08-06T23:39:19.776Z,73.80
2022-08-06T23:42:23.049Z,74.12
2022-08-06T23:45:25.119Z,74.95
2022-08-06T23:48:28.335Z,73.70
2022-08-06T23:52:01.326Z,73.65
2022-08-06T23:54:54.109Z,74.23
2022-08-06T23:57:57.191Z,73.68
